sensor_id;sensor_type;location;lat;lon;timestamp;P1;durP1;ratioP1;P2;durP2;ratioP2
3922;SDS011;1976;51.694;6.256;2022-08-24T00:00:33;19.60;;;8.00;;
3922;SDS011;1976;51.694;6.256;2022-08-24T00:02:59;18.93;;;8.97;;
3922;SDS011;1976;51.694;6.256;2022-08-24T00:05:26;19.73;;;8.40;;
3922;SDS011;1976;51.694;6.256;2022-08-24T00:07:52;14.43;;;9.10;;
3922;SDS011;1976;51.694;6.256;2022-08-24T00:10:19;20.73;;;9.77;;
3922;SDS011;1976;51.694;6.256;2022-08-24T00:12:45;22.93;;;9.37;;
3922;SDS011;1976;51.694;6.256;2022-08-24T00:15:12;12.60;;;7.73;;
3922;SDS011;1976;51.694;6.256;2022-08-24T00:17:40;16.00;;;8.70;;
3922;SDS011;1976;51.694;6.256;2022-08-24T00:20:07;15.27;;;8.23;;
3922;SDS011;1976;51.694;6.256;2022-08-24T00:22:33;18.43;;;8.70;;
3922;SDS011;1976;51.694;6.256;2022-08-24T00:24:59;14.77;;;8.70;;
3922;SDS011;1976;51.694;6.256;2022-08-24T00:27:25;23.53;;;8.70;;
3922;SDS011;1976;51.694;6.256;2022-08-24T00:29:52;12.50;;;7.73;;
3922;SDS011;1976;51.694;6.256;2022-08-24T00:32:19;9.60;;;7.43;;
3922;SDS011;1976;51.694;6.256;2022-08-24T00:34:45;18.00;;;8.83;;
3922;SDS011;1976;51.694;6.256;2022-08-24T00:37:11;22.20;;;10.00;;
3922;SDS011;1976;51.694;6.256;2022-08-24T00:39:37;13.00;;;9.00;;
3922;SDS011;1976;51.694;6.256;2022-08-24T00:42:03;14.90;;;10.73;;
3922;SDS011;1976;51.694;6.256;2022-08-24T00:44:29;28.27;;;10.40;;
3922;SDS011;1976;51.694;6.256;2022-08-24T00:46:58;15.57;;;10.07;;
3922;SDS011;1976;51.694;6.256;2022-08-24T00:49:35;13.80;;;10.17;;
3922;SDS011;1976;51.694;6.256;2022-08-24T00:54:28;21.20;;;11.00;;
3922;SDS011;1976;51.694;6.256;2022-08-24T00:56:57;19.60;;;11.50;;
3922;SDS011;1976;51.694;6.256;2022-08-24T00:59:25;16.33;;;11.83;;
3922;SDS011;1976;51.694;6.256;2022-08-24T01:01:52;22.07;;;11.20;;
3922;SDS011;1976;51.694;6.256;2022-08-24T01:04:20;19.93;;;10.40;;
3922;SDS011;1976;51.694;6.256;2022-08-24T01:06:47;20.13;;;11.77;;
3922;SDS011;1976;51.694;6.256;2022-08-24T01:09:14;16.73;;;12.13;;
3922;SDS011;1976;51.694;6.256;2022-08-24T01:11:40;20.50;;;13.10;;
3922;SDS011;1976;51.694;6.256;2022-08-24T01:14:06;17.43;;;12.37;;
3922;SDS011;1976;51.694;6.256;2022-08-24T01:16:32;20.57;;;10.73;;
3922;SDS011;1976;51.694;6.256;2022-08-24T01:24:40;27.53;;;12.20;;
3922;SDS011;1976;51.694;6.256;2022-08-24T01:27:07;20.80;;;12.80;;
3922;SDS011;1976;51.694;6.256;2022-08-24T01:29:34;14.17;;;10.73;;
3922;SDS011;1976;51.694;6.256;2022-08-24T01:32:00;14.23;;;8.63;;
3922;SDS011;1976;51.694;6.256;2022-08-24T01:34:26;11.87;;;9.13;;
3922;SDS011;1976;51.694;6.256;2022-08-24T01:36:54;16.17;;;10.70;;
3922;SDS011;1976;51.694;6.256;2022-08-24T01:39:24;13.57;;;9.40;;
3922;SDS011;1976;51.694;6.256;2022-08-24T01:41:51;22.83;;;12.00;;
3922;SDS011;1976;51.694;6.256;2022-08-24T01:44:18;21.67;;;13.80;;
3922;SDS011;1976;51.694;6.256;2022-08-24T01:46:44;15.60;;;11.90;;
3922;SDS011;1976;51.694;6.256;2022-08-24T01:49:11;22.90;;;12.07;;
3922;SDS011;1976;51.694;6.256;2022-08-24T01:51:37;18.10;;;12.10;;
3922;SDS011;1976;51.694;6.256;2022-08-24T01:54:03;20.80;;;13.10;;
3922;SDS011;1976;51.694;6.256;2022-08-24T01:56:30;25.30;;;13.33;;
3922;SDS011;1976;51.694;6.256;2022-08-24T01:58:56;17.47;;;12.60;;
3922;SDS011;1976;51.694;6.256;2022-08-24T02:01:23;18.50;;;13.30;;
3922;SDS011;1976;51.694;6.256;2022-08-24T02:03:50;23.50;;;13.50;;
3922;SDS011;1976;51.694;6.256;2022-08-24T02:06:17;16.83;;;13.30;;
3922;SDS011;1976;51.694;6.256;2022-08-24T02:08:44;18.63;;;12.20;;
3922;SDS011;1976;51.694;6.256;2022-08-24T02:11:10;27.73;;;12.17;;
3922;SDS011;1976;51.694;6.256;2022-08-24T02:13:37;23.37;;;12.33;;
3922;SDS011;1976;51.694;6.256;2022-08-24T02:16:03;20.50;;;11.00;;
3922;SDS011;1976;51.694;6.256;2022-08-24T02:18:30;17.90;;;12.80;;
3922;SDS011;1976;51.694;6.256;2022-08-24T02:20:57;23.80;;;13.47;;
3922;SDS011;1976;51.694;6.256;2022-08-24T02:23:23;28.87;;;15.17;;
3922;SDS011;1976;51.694;6.256;2022-08-24T02:25:49;32.40;;;16.97;;
3922;SDS011;1976;51.694;6.256;2022-08-24T02:28:15;23.77;;;15.10;;
3922;SDS011;1976;51.694;6.256;2022-08-24T02:30:42;24.27;;;14.03;;
3922;SDS011;1976;51.694;6.256;2022-08-24T02:33:08;25.20;;;14.07;;
3922;SDS011;1976;51.694;6.256;2022-08-24T02:35:35;27.03;;;12.27;;
3922;SDS011;1976;51.694;6.256;2022-08-24T02:38:01;22.13;;;12.80;;
3922;SDS011;1976;51.694;6.256;2022-08-24T02:40:27;27.47;;;13.70;;
3922;SDS011;1976;51.694;6.256;2022-08-24T02:42:53;19.50;;;12.60;;
3922;SDS011;1976;51.694;6.256;2022-08-24T02:45:19;18.67;;;12.57;;
3922;SDS011;1976;51.694;6.256;2022-08-24T02:47:46;21.37;;;12.90;;
3922;SDS011;1976;51.694;6.256;2022-08-24T02:50:13;26.50;;;14.87;;
3922;SDS011;1976;51.694;6.256;2022-08-24T02:52:39;26.10;;;13.57;;
3922;SDS011;1976;51.694;6.256;2022-08-24T02:55:06;22.10;;;13.43;;
3922;SDS011;1976;51.694;6.256;2022-08-24T02:57:32;27.33;;;13.50;;
3922;SDS011;1976;51.694;6.256;2022-08-24T02:59:58;18.03;;;12.83;;
3922;SDS011;1976;51.694;6.256;2022-08-24T03:02:25;19.73;;;14.67;;
3922;SDS011;1976;51.694;6.256;2022-08-24T03:04:51;18.73;;;14.90;;
3922;SDS011;1976;51.694;6.256;2022-08-24T03:07:17;22.63;;;14.67;;
3922;SDS011;1976;51.694;6.256;2022-08-24T03:09:43;25.90;;;14.77;;
3922;SDS011;1976;51.694;6.256;2022-08-24T03:12:09;18.50;;;13.27;;
3922;SDS011;1976;51.694;6.256;2022-08-24T03:14:36;28.87;;;13.90;;
3922;SDS011;1976;51.694;6.256;2022-08-24T03:17:02;24.33;;;13.40;;
3922;SDS011;1976;51.694;6.256;2022-08-24T03:19:28;16.77;;;11.97;;
3922;SDS011;1976;51.694;6.256;2022-08-24T03:21:54;17.77;;;14.30;;
3922;SDS011;1976;51.694;6.256;2022-08-24T03:24:20;16.87;;;14.30;;
3922;SDS011;1976;51.694;6.256;2022-08-24T03:26:46;22.77;;;15.00;;
3922;SDS011;1976;51.694;6.256;2022-08-24T03:29:12;25.33;;;16.60;;
3922;SDS011;1976;51.694;6.256;2022-08-24T03:31:39;36.33;;;17.80;;
3922;SDS011;1976;51.694;6.256;2022-08-24T03:34:05;23.80;;;18.83;;
3922;SDS011;1976;51.694;6.256;2022-08-24T03:36:30;27.77;;;20.40;;
3922;SDS011;1976;51.694;6.256;2022-08-24T03:38:57;41.83;;;20.67;;
3922;SDS011;1976;51.694;6.256;2022-08-24T03:41:23;28.80;;;20.43;;
3922;SDS011;1976;51.694;6.256;2022-08-24T03:43:49;30.80;;;20.73;;
3922;SDS011;1976;51.694;6.256;2022-08-24T03:46:19;27.53;;;19.23;;
3922;SDS011;1976;51.694;6.256;2022-08-24T03:48:46;25.20;;;18.97;;
3922;SDS011;1976;51.694;6.256;2022-08-24T03:51:13;29.10;;;22.03;;
3922;SDS011;1976;51.694;6.256;2022-08-24T03:53:40;26.17;;;18.83;;
3922;SDS011;1976;51.694;6.256;2022-08-24T03:56:06;31.73;;;20.10;;
3922;SDS011;1976;51.694;6.256;2022-08-24T03:58:34;35.13;;;19.77;;
3922;SDS011;1976;51.694;6.256;2022-08-24T04:01:00;30.23;;;18.37;;
3922;SDS011;1976;51.694;6.256;2022-08-24T04:03:27;27.07;;;16.70;;
3922;SDS011;1976;51.694;6.256;2022-08-24T04:05:53;24.03;;;18.33;;
3922;SDS011;1976;51.694;6.256;2022-08-24T04:08:19;28.60;;;18.67;;
3922;SDS011;1976;51.694;6.256;2022-08-24T04:10:46;27.43;;;18.37;;
3922;SDS011;1976;51.694;6.256;2022-08-24T04:13:12;43.23;;;18.20;;
3922;SDS011;1976;51.694;6.256;2022-08-24T04:15:40;29.33;;;20.70;;
3922;SDS011;1976;51.694;6.256;2022-08-24T04:18:07;29.40;;;21.00;;
3922;SDS011;1976;51.694;6.256;2022-08-24T04:20:37;31.03;;;22.03;;
3922;SDS011;1976;51.694;6.256;2022-08-24T04:23:03;31.33;;;20.60;;
3922;SDS011;1976;51.694;6.256;2022-08-24T04:25:29;33.30;;;20.70;;
3922;SDS011;1976;51.694;6.256;2022-08-24T04:27:56;35.93;;;22.27;;
3922;SDS011;1976;51.694;6.256;2022-08-24T04:30:22;35.10;;;20.23;;
3922;SDS011;1976;51.694;6.256;2022-08-24T04:32:49;28.60;;;20.43;;
3922;SDS011;1976;51.694;6.256;2022-08-24T04:35:15;37.20;;;23.43;;
3922;SDS011;1976;51.694;6.256;2022-08-24T04:37:41;24.93;;;20.77;;
3922;SDS011;1976;51.694;6.256;2022-08-24T04:40:07;38.90;;;22.90;;
3922;SDS011;1976;51.694;6.256;2022-08-24T04:42:33;36.10;;;24.00;;
3922;SDS011;1976;51.694;6.256;2022-08-24T04:45:01;36.83;;;24.40;;
3922;SDS011;1976;51.694;6.256;2022-08-24T04:47:27;40.93;;;25.27;;
3922;SDS011;1976;51.694;6.256;2022-08-24T04:49:53;32.60;;;21.73;;
3922;SDS011;1976;51.694;6.256;2022-08-24T04:52:20;37.70;;;24.90;;
3922;SDS011;1976;51.694;6.256;2022-08-24T04:54:46;46.53;;;25.90;;
3922;SDS011;1976;51.694;6.256;2022-08-24T04:57:12;36.90;;;24.50;;
3922;SDS011;1976;51.694;6.256;2022-08-24T04:59:38;35.47;;;23.90;;
3922;SDS011;1976;51.694;6.256;2022-08-24T05:02:05;34.97;;;25.47;;
3922;SDS011;1976;51.694;6.256;2022-08-24T05:04:31;40.33;;;28.47;;
3922;SDS011;1976;51.694;6.256;2022-08-24T05:06:57;43.73;;;26.80;;
3922;SDS011;1976;51.694;6.256;2022-08-24T05:09:23;37.80;;;25.57;;
3922;SDS011;1976;51.694;6.256;2022-08-24T05:11:49;36.73;;;25.10;;
3922;SDS011;1976;51.694;6.256;2022-08-24T05:14:15;38.70;;;26.03;;
3922;SDS011;1976;51.694;6.256;2022-08-24T05:16:41;49.63;;;24.77;;
3922;SDS011;1976;51.694;6.256;2022-08-24T05:19:07;42.60;;;24.77;;
3922;SDS011;1976;51.694;6.256;2022-08-24T05:21:33;44.00;;;26.07;;
3922;SDS011;1976;51.694;6.256;2022-08-24T05:23:59;48.83;;;24.87;;
3922;SDS011;1976;51.694;6.256;2022-08-24T05:26:25;34.10;;;24.20;;
3922;SDS011;1976;51.694;6.256;2022-08-24T05:28:52;46.10;;;25.73;;
3922;SDS011;1976;51.694;6.256;2022-08-24T05:31:20;40.73;;;25.70;;
3922;SDS011;1976;51.694;6.256;2022-08-24T05:33:47;46.87;;;28.43;;
3922;SDS011;1976;51.694;6.256;2022-08-24T05:36:21;38.07;;;25.60;;
3922;SDS011;1976;51.694;6.256;2022-08-24T05:38:47;32.50;;;23.83;;
3922;SDS011;1976;51.694;6.256;2022-08-24T05:41:14;33.23;;;24.67;;
3922;SDS011;1976;51.694;6.256;2022-08-24T05:43:41;36.93;;;24.53;;
3922;SDS011;1976;51.694;6.256;2022-08-24T05:46:07;41.47;;;24.90;;
3922;SDS011;1976;51.694;6.256;2022-08-24T05:48:33;51.93;;;28.17;;
3922;SDS011;1976;51.694;6.256;2022-08-24T05:51:01;43.23;;;27.93;;
3922;SDS011;1976;51.694;6.256;2022-08-24T05:53:27;42.50;;;27.17;;
3922;SDS011;1976;51.694;6.256;2022-08-24T05:55:53;43.70;;;27.67;;
3922;SDS011;1976;51.694;6.256;2022-08-24T05:58:19;45.43;;;28.60;;
3922;SDS011;1976;51.694;6.256;2022-08-24T06:00:45;47.27;;;27.57;;
3922;SDS011;1976;51.694;6.256;2022-08-24T06:03:12;35.57;;;27.00;;
3922;SDS011;1976;51.694;6.256;2022-08-24T06:05:42;40.70;;;28.43;;
3922;SDS011;1976;51.694;6.256;2022-08-24T06:08:09;41.47;;;27.63;;
3922;SDS011;1976;51.694;6.256;2022-08-24T06:10:41;45.90;;;28.20;;
3922;SDS011;1976;51.694;6.256;2022-08-24T06:13:08;47.37;;;28.43;;
3922;SDS011;1976;51.694;6.256;2022-08-24T06:15:35;42.13;;;27.70;;
3922;SDS011;1976;51.694;6.256;2022-08-24T06:18:01;45.17;;;28.50;;
3922;SDS011;1976;51.694;6.256;2022-08-24T06:20:28;38.10;;;27.70;;
3922;SDS011;1976;51.694;6.256;2022-08-24T06:22:54;35.00;;;25.73;;
3922;SDS011;1976;51.694;6.256;2022-08-24T06:25:20;38.53;;;27.77;;
3922;SDS011;1976;51.694;6.256;2022-08-24T06:28:05;37.10;;;27.13;;
3922;SDS011;1976;51.694;6.256;2022-08-24T06:30:31;38.60;;;26.80;;
3922;SDS011;1976;51.694;6.256;2022-08-24T06:32:58;39.30;;;26.47;;
3922;SDS011;1976;51.694;6.256;2022-08-24T06:35:24;50.23;;;25.57;;
3922;SDS011;1976;51.694;6.256;2022-08-24T06:37:50;37.97;;;24.70;;
3922;SDS011;1976;51.694;6.256;2022-08-24T06:40:16;37.97;;;25.13;;
3922;SDS011;1976;51.694;6.256;2022-08-24T06:42:44;31.93;;;24.57;;
3922;SDS011;1976;51.694;6.256;2022-08-24T06:45:10;35.57;;;23.67;;
3922;SDS011;1976;51.694;6.256;2022-08-24T06:47:37;29.67;;;23.60;;
3922;SDS011;1976;51.694;6.256;2022-08-24T06:50:03;33.43;;;23.10;;
3922;SDS011;1976;51.694;6.256;2022-08-24T06:52:30;35.10;;;21.63;;
3922;SDS011;1976;51.694;6.256;2022-08-24T06:54:57;34.10;;;21.00;;
3922;SDS011;1976;51.694;6.256;2022-08-24T06:57:23;35.97;;;20.23;;
3922;SDS011;1976;51.694;6.256;2022-08-24T06:59:49;37.03;;;20.93;;
3922;SDS011;1976;51.694;6.256;2022-08-24T07:02:15;30.53;;;20.23;;
3922;SDS011;1976;51.694;6.256;2022-08-24T07:04:43;42.87;;;19.50;;
3922;SDS011;1976;51.694;6.256;2022-08-24T07:07:10;27.57;;;19.97;;
3922;SDS011;1976;51.694;6.256;2022-08-24T07:09:36;25.30;;;17.93;;
3922;SDS011;1976;51.694;6.256;2022-08-24T07:12:02;24.60;;;17.10;;
3922;SDS011;1976;51.694;6.256;2022-08-24T07:14:28;25.67;;;16.10;;
3922;SDS011;1976;51.694;6.256;2022-08-24T07:16:54;24.70;;;17.07;;
3922;SDS011;1976;51.694;6.256;2022-08-24T07:19:20;22.53;;;17.03;;
3922;SDS011;1976;51.694;6.256;2022-08-24T07:21:46;23.07;;;16.03;;
3922;SDS011;1976;51.694;6.256;2022-08-24T07:24:12;22.07;;;14.77;;
3922;SDS011;1976;51.694;6.256;2022-08-24T07:26:38;20.27;;;14.70;;
3922;SDS011;1976;51.694;6.256;2022-08-24T07:29:08;21.67;;;14.77;;
3922;SDS011;1976;51.694;6.256;2022-08-24T07:31:35;26.93;;;13.20;;
3922;SDS011;1976;51.694;6.256;2022-08-24T07:34:02;23.70;;;14.13;;
3922;SDS011;1976;51.694;6.256;2022-08-24T07:36:28;21.70;;;13.63;;
3922;SDS011;1976;51.694;6.256;2022-08-24T07:38:55;24.73;;;13.23;;
3922;SDS011;1976;51.694;6.256;2022-08-24T07:41:21;32.93;;;12.70;;
3922;SDS011;1976;51.694;6.256;2022-08-24T07:43:49;26.17;;;13.20;;
3922;SDS011;1976;51.694;6.256;2022-08-24T07:46:17;28.03;;;11.80;;
3922;SDS011;1976;51.694;6.256;2022-08-24T07:48:43;22.40;;;13.90;;
3922;SDS011;1976;51.694;6.256;2022-08-24T07:51:11;19.27;;;13.30;;
3922;SDS011;1976;51.694;6.256;2022-08-24T07:53:37;18.10;;;12.60;;
3922;SDS011;1976;51.694;6.256;2022-08-24T07:56:03;17.30;;;12.67;;
3922;SDS011;1976;51.694;6.256;2022-08-24T07:58:30;22.33;;;13.43;;
3922;SDS011;1976;51.694;6.256;2022-08-24T08:00:56;22.57;;;12.70;;
3922;SDS011;1976;51.694;6.256;2022-08-24T08:03:23;24.40;;;12.67;;
3922;SDS011;1976;51.694;6.256;2022-08-24T08:05:56;18.00;;;10.90;;
3922;SDS011;1976;51.694;6.256;2022-08-24T08:08:23;14.30;;;9.27;;
3922;SDS011;1976;51.694;6.256;2022-08-24T08:10:50;30.57;;;12.17;;
3922;SDS011;1976;51.694;6.256;2022-08-24T08:13:16;17.93;;;10.90;;
3922;SDS011;1976;51.694;6.256;2022-08-24T08:15:42;19.50;;;9.20;;
3922;SDS011;1976;51.694;6.256;2022-08-24T08:18:08;22.97;;;10.67;;
3922;SDS011;1976;51.694;6.256;2022-08-24T08:20:35;25.07;;;9.40;;
3922;SDS011;1976;51.694;6.256;2022-08-24T08:23:02;15.23;;;9.10;;
3922;SDS011;1976;51.694;6.256;2022-08-24T08:25:50;15.03;;;6.70;;
3922;SDS011;1976;51.694;6.256;2022-08-24T08:28:17;17.00;;;6.40;;
3922;SDS011;1976;51.694;6.256;2022-08-24T08:30:44;12.93;;;6.70;;
3922;SDS011;1976;51.694;6.256;2022-08-24T08:33:10;12.00;;;6.80;;
3922;SDS011;1976;51.694;6.256;2022-08-24T08:35:37;9.03;;;5.03;;
3922;SDS011;1976;51.694;6.256;2022-08-24T08:38:03;20.33;;;4.37;;
3922;SDS011;1976;51.694;6.256;2022-08-24T08:40:46;7.20;;;5.27;;
3922;SDS011;1976;51.694;6.256;2022-08-24T08:54:13;10.53;;;3.60;;
3922;SDS011;1976;51.694;6.256;2022-08-24T08:59:35;3.00;;;2.40;;
3922;SDS011;1976;51.694;6.256;2022-08-24T09:02:08;2.90;;;2.63;;
3922;SDS011;1976;51.694;6.256;2022-08-24T09:04:46;3.40;;;2.40;;
3922;SDS011;1976;51.694;6.256;2022-08-24T09:07:59;2.20;;;2.00;;
3922;SDS011;1976;51.694;6.256;2022-08-24T09:12:35;5.70;;;1.93;;
3922;SDS011;1976;51.694;6.256;2022-08-24T09:15:29;2.47;;;1.30;;
3922;SDS011;1976;51.694;6.256;2022-08-24T09:21:14;2.93;;;1.47;;
3922;SDS011;1976;51.694;6.256;2022-08-24T09:24:23;2.83;;;1.87;;
3922;SDS011;1976;51.694;6.256;2022-08-24T09:49:09;5.03;;;1.23;;
3922;SDS011;1976;51.694;6.256;2022-08-24T09:51:52;17.47;;;1.73;;
3922;SDS011;1976;51.694;6.256;2022-08-24T09:54:56;3.10;;;1.33;;
3922;SDS011;1976;51.694;6.256;2022-08-24T10:00:45;5.43;;;1.03;;
3922;SDS011;1976;51.694;6.256;2022-08-24T10:08:59;1.13;;;1.03;;
3922;SDS011;1976;51.694;6.256;2022-08-24T10:11:51;2.70;;;0.70;;
3922;SDS011;1976;51.694;6.256;2022-08-24T10:17:12;0.77;;;0.77;;
3922;SDS011;1976;51.694;6.256;2022-08-24T10:19:59;1.10;;;0.80;;
3922;SDS011;1976;51.694;6.256;2022-08-24T10:23:09;1.30;;;0.70;;
3922;SDS011;1976;51.694;6.256;2022-08-24T10:26:03;0.97;;;0.90;;
3922;SDS011;1976;51.694;6.256;2022-08-24T10:29:25;0.90;;;0.70;;
3922;SDS011;1976;51.694;6.256;2022-08-24T10:32:24;0.90;;;0.90;;
3922;SDS011;1976;51.694;6.256;2022-08-24T10:34:58;4.00;;;0.80;;
3922;SDS011;1976;51.694;6.256;2022-08-24T10:49:43;4.57;;;0.80;;
3922;SDS011;1976;51.694;6.256;2022-08-24T10:54:51;3.50;;;0.90;;
3922;SDS011;1976;51.694;6.256;2022-08-24T11:00:04;6.23;;;0.83;;
3922;SDS011;1976;51.694;6.256;2022-08-24T11:02:32;9.00;;;2.10;;
3922;SDS011;1976;51.694;6.256;2022-08-24T11:05:00;8.13;;;1.40;;
3922;SDS011;1976;51.694;6.256;2022-08-24T11:07:30;1.00;;;1.00;;
3922;SDS011;1976;51.694;6.256;2022-08-24T11:10:00;4.10;;;0.80;;
3922;SDS011;1976;51.694;6.256;2022-08-24T11:17:35;1.20;;;1.00;;
3922;SDS011;1976;51.694;6.256;2022-08-24T11:20:02;2.00;;;0.90;;
3922;SDS011;1976;51.694;6.256;2022-08-24T11:25:41;2.83;;;1.33;;
3922;SDS011;1976;51.694;6.256;2022-08-24T11:28:31;1.43;;;0.93;;
3922;SDS011;1976;51.694;6.256;2022-08-24T11:31:18;3.90;;;1.23;;
3922;SDS011;1976;51.694;6.256;2022-08-24T11:34:07;3.43;;;0.90;;
3922;SDS011;1976;51.694;6.256;2022-08-24T11:36:41;12.17;;;1.20;;
3922;SDS011;1976;51.694;6.256;2022-08-24T11:39:20;0.90;;;0.90;;
3922;SDS011;1976;51.694;6.256;2022-08-24T11:42:06;2.83;;;1.00;;
3922;SDS011;1976;51.694;6.256;2022-08-24T11:44:55;4.67;;;1.03;;
3922;SDS011;1976;51.694;6.256;2022-08-24T11:48:17;4.03;;;1.07;;
3922;SDS011;1976;51.694;6.256;2022-08-24T11:53:13;1.53;;;1.13;;
3922;SDS011;1976;51.694;6.256;2022-08-24T11:56:02;4.17;;;1.20;;
3922;SDS011;1976;51.694;6.256;2022-08-24T11:58:53;1.30;;;1.20;;
3922;SDS011;1976;51.694;6.256;2022-08-24T12:01:34;5.30;;;1.23;;
3922;SDS011;1976;51.694;6.256;2022-08-24T12:04:54;1.43;;;1.27;;
3922;SDS011;1976;51.694;6.256;2022-08-24T12:07:28;1.35;;;1.10;;
3922;SDS011;1976;51.694;6.256;2022-08-24T12:13:14;12.82;;;1.23;;
3922;SDS011;1976;51.694;6.256;2022-08-24T12:15:50;1.05;;;0.88;;
3922;SDS011;1976;51.694;6.256;2022-08-24T12:21:20;1.87;;;1.13;;
3922;SDS011;1976;51.694;6.256;2022-08-24T12:23:59;1.23;;;0.83;;
3922;SDS011;1976;51.694;6.256;2022-08-24T12:26:35;1.30;;;0.97;;
3922;SDS011;1976;51.694;6.256;2022-08-24T12:29:06;2.07;;;1.03;;
3922;SDS011;1976;51.694;6.256;2022-08-24T12:31:46;1.40;;;1.30;;
3922;SDS011;1976;51.694;6.256;2022-08-24T12:34:20;2.50;;;1.23;;
3922;SDS011;1976;51.694;6.256;2022-08-24T12:37:28;1.90;;;1.20;;
3922;SDS011;1976;51.694;6.256;2022-08-24T12:42:57;1.90;;;1.13;;
3922;SDS011;1976;51.694;6.256;2022-08-24T12:45:28;2.47;;;1.30;;
3922;SDS011;1976;51.694;6.256;2022-08-24T12:47:59;10.97;;;1.20;;
3922;SDS011;1976;51.694;6.256;2022-08-24T12:58:58;2.20;;;1.53;;
3922;SDS011;1976;51.694;6.256;2022-08-24T13:01:31;4.47;;;1.40;;
3922;SDS011;1976;51.694;6.256;2022-08-24T13:07:04;4.07;;;1.30;;
3922;SDS011;1976;51.694;6.256;2022-08-24T13:41:51;5.40;;;1.10;;
3922;SDS011;1976;51.694;6.256;2022-08-24T13:49:48;1.85;;;1.20;;
3922;SDS011;1976;51.694;6.256;2022-08-24T13:55:14;0.93;;;0.80;;
3922;SDS011;1976;51.694;6.256;2022-08-24T14:20:27;4.63;;;1.70;;
3922;SDS011;1976;51.694;6.256;2022-08-24T14:23:27;1.57;;;1.30;;
3922;SDS011;1976;51.694;6.256;2022-08-24T14:37:01;5.47;;;1.33;;
3922;SDS011;1976;51.694;6.256;2022-08-24T14:50:21;5.50;;;1.30;;
3922;SDS011;1976;51.694;6.256;2022-08-24T14:53:17;2.40;;;1.40;;
3922;SDS011;1976;51.694;6.256;2022-08-24T15:06:49;3.53;;;1.50;;
3922;SDS011;1976;51.694;6.256;2022-08-24T15:11:49;1.23;;;1.03;;
3922;SDS011;1976;51.694;6.256;2022-08-24T15:14:31;2.93;;;1.10;;
3922;SDS011;1976;51.694;6.256;2022-08-24T15:17:09;3.93;;;1.20;;
3922;SDS011;1976;51.694;6.256;2022-08-24T15:22:47;1.30;;;1.20;;
3922;SDS011;1976;51.694;6.256;2022-08-24T15:28:11;2.50;;;1.27;;
3922;SDS011;1976;51.694;6.256;2022-08-24T15:30:52;6.13;;;1.70;;
3922;SDS011;1976;51.694;6.256;2022-08-24T15:33:20;4.70;;;1.30;;
3922;SDS011;1976;51.694;6.256;2022-08-24T15:35:47;5.17;;;2.10;;
3922;SDS011;1976;51.694;6.256;2022-08-24T15:43:57;9.30;;;1.80;;
3922;SDS011;1976;51.694;6.256;2022-08-24T15:46:40;4.20;;;1.40;;
3922;SDS011;1976;51.694;6.256;2022-08-24T15:49:17;3.00;;;1.50;;
3922;SDS011;1976;51.694;6.256;2022-08-24T15:52:04;1.63;;;1.33;;
3922;SDS011;1976;51.694;6.256;2022-08-24T15:54:57;7.37;;;1.60;;
3922;SDS011;1976;51.694;6.256;2022-08-24T15:57:27;5.03;;;1.90;;
3922;SDS011;1976;51.694;6.256;2022-08-24T16:05:46;6.10;;;1.20;;
3922;SDS011;1976;51.694;6.256;2022-08-24T16:08:12;3.37;;;1.50;;
3922;SDS011;1976;51.694;6.256;2022-08-24T16:10:57;9.23;;;2.00;;
3922;SDS011;1976;51.694;6.256;2022-08-24T16:13:43;1.63;;;1.50;;
3922;SDS011;1976;51.694;6.256;2022-08-24T16:16:10;6.70;;;1.43;;
3922;SDS011;1976;51.694;6.256;2022-08-24T16:29:58;2.17;;;1.23;;
3922;SDS011;1976;51.694;6.256;2022-08-24T16:34:40;9.77;;;2.30;;
3922;SDS011;1976;51.694;6.256;2022-08-24T16:37:13;1.57;;;1.40;;
3922;SDS011;1976;51.694;6.256;2022-08-24T16:39:40;2.83;;;1.60;;
3922;SDS011;1976;51.694;6.256;2022-08-24T16:42:09;3.93;;;1.80;;
3922;SDS011;1976;51.694;6.256;2022-08-24T16:44:39;6.50;;;1.40;;
3922;SDS011;1976;51.694;6.256;2022-08-24T16:47:07;8.13;;;1.90;;
3922;SDS011;1976;51.694;6.256;2022-08-24T16:49:33;13.03;;;1.97;;
3922;SDS011;1976;51.694;6.256;2022-08-24T16:52:00;11.77;;;1.60;;
3922;SDS011;1976;51.694;6.256;2022-08-24T16:54:27;1.97;;;1.27;;
3922;SDS011;1976;51.694;6.256;2022-08-24T16:56:55;2.13;;;1.63;;
3922;SDS011;1976;51.694;6.256;2022-08-24T16:59:27;6.40;;;1.80;;
3922;SDS011;1976;51.694;6.256;2022-08-24T17:01:56;5.03;;;1.53;;
3922;SDS011;1976;51.694;6.256;2022-08-24T17:04:22;9.03;;;1.87;;
3922;SDS011;1976;51.694;6.256;2022-08-24T17:06:49;9.23;;;1.43;;
3922;SDS011;1976;51.694;6.256;2022-08-24T17:09:15;6.20;;;1.80;;
3922;SDS011;1976;51.694;6.256;2022-08-24T17:11:41;1.83;;;1.37;;
3922;SDS011;1976;51.694;6.256;2022-08-24T17:14:07;3.50;;;1.57;;
3922;SDS011;1976;51.694;6.256;2022-08-24T17:16:33;3.80;;;1.70;;
3922;SDS011;1976;51.694;6.256;2022-08-24T17:19:00;3.57;;;1.63;;
3922;SDS011;1976;51.694;6.256;2022-08-24T17:21:30;2.63;;;1.50;;
3922;SDS011;1976;51.694;6.256;2022-08-24T17:23:56;2.60;;;1.60;;
3922;SDS011;1976;51.694;6.256;2022-08-24T17:26:21;6.50;;;1.63;;
3922;SDS011;1976;51.694;6.256;2022-08-24T17:28:48;2.50;;;1.53;;
3922;SDS011;1976;51.694;6.256;2022-08-24T17:31:16;2.43;;;1.50;;
3922;SDS011;1976;51.694;6.256;2022-08-24T17:33:42;18.20;;;1.53;;
3922;SDS011;1976;51.694;6.256;2022-08-24T17:36:07;1.47;;;1.37;;
3922;SDS011;1976;51.694;6.256;2022-08-24T17:38:36;3.90;;;2.20;;
3922;SDS011;1976;51.694;6.256;2022-08-24T17:41:07;6.23;;;1.70;;
3922;SDS011;1976;51.694;6.256;2022-08-24T17:43:33;3.90;;;1.77;;
3922;SDS011;1976;51.694;6.256;2022-08-24T17:45:59;11.10;;;1.43;;
3922;SDS011;1976;51.694;6.256;2022-08-24T17:48:25;5.47;;;1.60;;
3922;SDS011;1976;51.694;6.256;2022-08-24T17:50:52;4.83;;;1.50;;
3922;SDS011;1976;51.694;6.256;2022-08-24T17:53:18;6.03;;;1.90;;
3922;SDS011;1976;51.694;6.256;2022-08-24T17:55:44;2.30;;;1.37;;
3922;SDS011;1976;51.694;6.256;2022-08-24T17:58:10;2.70;;;1.60;;
3922;SDS011;1976;51.694;6.256;2022-08-24T18:00:37;2.13;;;1.50;;
3922;SDS011;1976;51.694;6.256;2022-08-24T18:03:02;4.63;;;2.10;;
3922;SDS011;1976;51.694;6.256;2022-08-24T18:05:29;5.03;;;1.77;;
3922;SDS011;1976;51.694;6.256;2022-08-24T18:07:56;3.50;;;1.97;;
3922;SDS011;1976;51.694;6.256;2022-08-24T18:10:26;12.53;;;2.10;;
3922;SDS011;1976;51.694;6.256;2022-08-24T18:12:55;1.60;;;1.50;;
3922;SDS011;1976;51.694;6.256;2022-08-24T18:15:21;2.53;;;1.53;;
3922;SDS011;1976;51.694;6.256;2022-08-24T18:17:49;8.93;;;1.70;;
3922;SDS011;1976;51.694;6.256;2022-08-24T18:20:18;1.70;;;1.60;;
3922;SDS011;1976;51.694;6.256;2022-08-24T18:22:48;1.93;;;1.83;;
3922;SDS011;1976;51.694;6.256;2022-08-24T18:25:15;2.50;;;1.87;;
3922;SDS011;1976;51.694;6.256;2022-08-24T18:27:42;3.50;;;1.90;;
3922;SDS011;1976;51.694;6.256;2022-08-24T18:30:13;5.10;;;2.00;;
3922;SDS011;1976;51.694;6.256;2022-08-24T18:32:43;7.90;;;2.30;;
3922;SDS011;1976;51.694;6.256;2022-08-24T18:35:09;7.30;;;1.87;;
3922;SDS011;1976;51.694;6.256;2022-08-24T18:37:35;2.80;;;1.63;;
3922;SDS011;1976;51.694;6.256;2022-08-24T18:40:01;11.77;;;2.00;;
3922;SDS011;1976;51.694;6.256;2022-08-24T18:42:27;13.23;;;2.30;;
3922;SDS011;1976;51.694;6.256;2022-08-24T18:44:54;22.53;;;2.37;;
3922;SDS011;1976;51.694;6.256;2022-08-24T18:47:20;3.37;;;2.00;;
3922;SDS011;1976;51.694;6.256;2022-08-24T18:49:46;3.73;;;1.70;;
3922;SDS011;1976;51.694;6.256;2022-08-24T18:52:12;2.70;;;1.63;;
3922;SDS011;1976;51.694;6.256;2022-08-24T18:54:41;2.20;;;1.90;;
3922;SDS011;1976;51.694;6.256;2022-08-24T18:57:09;5.00;;;2.40;;
3922;SDS011;1976;51.694;6.256;2022-08-24T18:59:35;15.73;;;2.63;;
3922;SDS011;1976;51.694;6.256;2022-08-24T19:02:09;9.10;;;2.40;;
3922;SDS011;1976;51.694;6.256;2022-08-24T19:05:06;7.60;;;1.57;;
3922;SDS011;1976;51.694;6.256;2022-08-24T19:07:39;4.60;;;2.20;;
3922;SDS011;1976;51.694;6.256;2022-08-24T19:10:07;5.97;;;1.57;;
3922;SDS011;1976;51.694;6.256;2022-08-24T19:12:39;13.03;;;2.10;;
3922;SDS011;1976;51.694;6.256;2022-08-24T19:15:08;11.27;;;3.00;;
3922;SDS011;1976;51.694;6.256;2022-08-24T19:17:34;7.30;;;2.27;;